sensor_id;sensor_type;location;lat;lon;timestamp;pressure;altitude;pressure_sealevel;temperature;humidity
45369;BME280;51342;55.250;37.668;2024-03-02T00:00:31;100877.09;;;0.77;76.60
45369;BME280;51342;55.250;37.668;2024-03-02T00:03:03;100872.75;;;0.76;76.65
45369;BME280;51342;55.250;37.668;2024-03-02T00:05:35;100870.75;;;0.73;76.71
45369;BME280;51342;55.250;37.668;2024-03-02T00:08:07;100873.88;;;0.71;76.46
45369;BME280;51342;55.250;37.668;2024-03-02T00:10:39;100870.78;;;0.66;76.58
45369;BME280;51342;55.250;37.668;2024-03-02T00:13:12;100873.69;;;0.62;76.63
45369;BME280;51342;55.250;37.668;2024-03-02T00:15:48;100870.28;;;0.55;76.58
45369;BME280;51342;55.250;37.668;2024-03-02T00:18:35;100867.78;;;0.47;76.64
45369;BME280;51342;55.250;37.668;2024-03-02T00:21:08;100868.53;;;0.46;76.68
45369;BME280;51342;55.250;37.668;2024-03-02T00:23:44;100872.91;;;0.40;76.71
45369;BME280;51342;55.250;37.668;2024-03-02T00:26:15;100870.72;;;0.36;76.83
45369;BME280;51342;55.250;37.668;2024-03-02T00:28:47;100866.00;;;0.32;77.09
45369;BME280;51342;55.250;37.668;2024-03-02T00:31:21;100865.47;;;0.28;77.14
45369;BME280;51342;55.250;37.668;2024-03-02T00:33:53;100871.13;;;0.25;77.22
45369;BME280;51342;55.250;37.668;2024-03-02T00:36:26;100874.75;;;0.20;77.18
45369;BME280;51342;55.250;37.668;2024-03-02T00:39:00;100863.31;;;0.16;77.16
45369;BME280;51342;55.250;37.668;2024-03-02T00:41:31;100866.78;;;0.10;77.18
45369;BME280;51342;55.250;37.668;2024-03-02T00:44:06;100865.34;;;0.05;77.02
45369;BME280;51342;55.250;37.668;2024-03-02T00:46:41;100867.53;;;0.02;77.02
45369;BME280;51342;55.250;37.668;2024-03-02T00:51:52;100866.44;;;-0.08;77.06
45369;BME280;51342;55.250;37.668;2024-03-02T00:54:26;100875.38;;;-0.11;77.01
45369;BME280;51342;55.250;37.668;2024-03-02T00:56:57;100876.81;;;-0.13;77.32
45369;BME280;51342;55.250;37.668;2024-03-02T00:59:30;100876.47;;;-0.16;77.08
45369;BME280;51342;55.250;37.668;2024-03-02T01:02:02;100875.38;;;-0.18;77.00
45369;BME280;51342;55.250;37.668;2024-03-02T01:04:34;100874.81;;;-0.23;76.75
45369;BME280;51342;55.250;37.668;2024-03-02T01:07:05;100878.47;;;-0.28;77.02
45369;BME280;51342;55.250;37.668;2024-03-02T01:09:37;100877.22;;;-0.39;76.91
45369;BME280;51342;55.250;37.668;2024-03-02T01:12:09;100878.28;;;-0.44;76.96
45369;BME280;51342;55.250;37.668;2024-03-02T01:14:40;100884.81;;;-0.46;77.01
45369;BME280;51342;55.250;37.668;2024-03-02T01:17:11;100879.72;;;-0.53;76.76
45369;BME280;51342;55.250;37.668;2024-03-02T01:19:43;100874.66;;;-0.60;76.89
45369;BME280;51342;55.250;37.668;2024-03-02T01:22:14;100883.91;;;-0.61;76.72
45369;BME280;51342;55.250;37.668;2024-03-02T01:24:46;100883.19;;;-0.67;76.74
45369;BME280;51342;55.250;37.668;2024-03-02T01:27:17;100892.41;;;-0.74;76.68
45369;BME280;51342;55.250;37.668;2024-03-02T01:29:50;100890.25;;;-0.78;76.53
45369;BME280;51342;55.250;37.668;2024-03-02T01:32:21;100882.59;;;-0.86;76.64
45369;BME280;51342;55.250;37.668;2024-03-02T01:34:52;100886.94;;;-0.92;76.69
45369;BME280;51342;55.250;37.668;2024-03-02T01:37:24;100890.19;;;-1.00;76.53
45369;BME280;51342;55.250;37.668;2024-03-02T01:39:56;100888.00;;;-1.04;76.60
45369;BME280;51342;55.250;37.668;2024-03-02T01:42:27;100898.69;;;-1.07;76.67
45369;BME280;51342;55.250;37.668;2024-03-02T01:44:58;100890.69;;;-1.10;76.66
45369;BME280;51342;55.250;37.668;2024-03-02T01:47:30;100892.50;;;-1.16;76.84
45369;BME280;51342;55.250;37.668;2024-03-02T01:50:01;100888.31;;;-1.22;76.57
45369;BME280;51342;55.250;37.668;2024-03-02T01:52:33;100891.91;;;-1.27;76.81
45369;BME280;51342;55.250;37.668;2024-03-02T01:55:05;100892.06;;;-1.33;76.78
45369;BME280;51342;55.250;37.668;2024-03-02T01:57:37;100893.13;;;-1.38;76.90
45369;BME280;51342;55.250;37.668;2024-03-02T02:00:09;100885.16;;;-1.41;76.78
45369;BME280;51342;55.250;37.668;2024-03-02T02:02:44;100886.78;;;-1.42;76.89
45369;BME280;51342;55.250;37.668;2024-03-02T02:05:16;100896.41;;;-1.39;76.60
45369;BME280;51342;55.250;37.668;2024-03-02T02:07:47;100900.16;;;-1.43;76.71
45369;BME280;51342;55.250;37.668;2024-03-02T02:10:19;100902.19;;;-1.47;76.58
45369;BME280;51342;55.250;37.668;2024-03-02T02:12:50;100894.91;;;-1.51;76.64
45369;BME280;51342;55.250;37.668;2024-03-02T02:15:29;100899.00;;;-1.59;76.66
45369;BME280;51342;55.250;37.668;2024-03-02T02:18:01;100897.56;;;-1.64;76.45
45369;BME280;51342;55.250;37.668;2024-03-02T02:20:34;100895.16;;;-1.70;76.79
45369;BME280;51342;55.250;37.668;2024-03-02T02:23:06;100902.03;;;-1.76;76.65
45369;BME280;51342;55.250;37.668;2024-03-02T02:25:39;100900.91;;;-1.78;76.99
45369;BME280;51342;55.250;37.668;2024-03-02T02:28:10;100895.25;;;-1.82;76.85
45369;BME280;51342;55.250;37.668;2024-03-02T02:30:42;100897.94;;;-1.88;77.04
45369;BME280;51342;55.250;37.668;2024-03-02T02:33:13;100894.63;;;-1.94;77.08
45369;BME280;51342;55.250;37.668;2024-03-02T02:35:45;100900.97;;;-1.98;77.50
45369;BME280;51342;55.250;37.668;2024-03-02T02:38:16;100898.03;;;-2.01;77.11
45369;BME280;51342;55.250;37.668;2024-03-02T02:40:48;100908.19;;;-2.01;77.21
45369;BME280;51342;55.250;37.668;2024-03-02T02:43:19;100910.53;;;-2.02;77.26
45369;BME280;51342;55.250;37.668;2024-03-02T02:45:51;100908.38;;;-1.99;77.25
45369;BME280;51342;55.250;37.668;2024-03-02T02:48:22;100905.13;;;-1.98;77.06
45369;BME280;51342;55.250;37.668;2024-03-02T02:50:54;100904.56;;;-2.03;77.01
45369;BME280;51342;55.250;37.668;2024-03-02T02:53:25;100899.63;;;-2.08;76.96
45369;BME280;51342;55.250;37.668;2024-03-02T02:55:56;100906.84;;;-2.11;77.06
45369;BME280;51342;55.250;37.668;2024-03-02T02:58:28;100911.53;;;-2.15;77.12
45369;BME280;51342;55.250;37.668;2024-03-02T03:00:59;100911.53;;;-2.15;77.14
45369;BME280;51342;55.250;37.668;2024-03-02T03:03:31;100913.66;;;-2.18;76.95
45369;BME280;51342;55.250;37.668;2024-03-02T03:06:02;100910.94;;;-2.19;76.97
45369;BME280;51342;55.250;37.668;2024-03-02T03:08:34;100911.47;;;-2.22;77.06
45369;BME280;51342;55.250;37.668;2024-03-02T03:11:05;100913.63;;;-2.25;77.09
45369;BME280;51342;55.250;37.668;2024-03-02T03:13:37;100915.38;;;-2.31;76.96
45369;BME280;51342;55.250;37.668;2024-03-02T03:16:08;100914.97;;;-2.34;77.00
45369;BME280;51342;55.250;37.668;2024-03-02T03:18:40;100911.16;;;-2.37;77.01
45369;BME280;51342;55.250;37.668;2024-03-02T03:21:11;100918.56;;;-2.39;77.00
45369;BME280;51342;55.250;37.668;2024-03-02T03:23:42;100911.81;;;-2.46;76.96
45369;BME280;51342;55.250;37.668;2024-03-02T03:26:14;100910.72;;;-2.48;77.06
45369;BME280;51342;55.250;37.668;2024-03-02T03:28:45;100910.84;;;-2.53;77.05
45369;BME280;51342;55.250;37.668;2024-03-02T03:31:17;100915.50;;;-2.56;76.94
45369;BME280;51342;55.250;37.668;2024-03-02T03:33:48;100918.75;;;-2.57;76.98
45369;BME280;51342;55.250;37.668;2024-03-02T03:36:19;100923.63;;;-2.59;76.73
45369;BME280;51342;55.250;37.668;2024-03-02T03:38:51;100919.06;;;-2.61;76.73
45369;BME280;51342;55.250;37.668;2024-03-02T03:41:22;100917.59;;;-2.67;76.46
45369;BME280;51342;55.250;37.668;2024-03-02T03:43:54;100912.78;;;-2.78;76.62
45369;BME280;51342;55.250;37.668;2024-03-02T03:46:25;100913.09;;;-2.82;76.71
45369;BME280;51342;55.250;37.668;2024-03-02T03:48:57;100906.91;;;-2.84;76.72
45369;BME280;51342;55.250;37.668;2024-03-02T03:51:28;100903.81;;;-2.88;76.76
45369;BME280;51342;55.250;37.668;2024-03-02T03:54:00;100902.31;;;-2.94;76.50
45369;BME280;51342;55.250;37.668;2024-03-02T03:56:31;100901.31;;;-3.01;76.46
45369;BME280;51342;55.250;37.668;2024-03-02T03:59:03;100904.38;;;-3.04;76.67
45369;BME280;51342;55.250;37.668;2024-03-02T04:01:35;100906.00;;;-3.04;76.44
45369;BME280;51342;55.250;37.668;2024-03-02T04:04:07;100907.72;;;-3.10;76.54
45369;BME280;51342;55.250;37.668;2024-03-02T04:06:38;100903.28;;;-3.18;76.12
45369;BME280;51342;55.250;37.668;2024-03-02T04:09:10;100911.22;;;-3.23;76.34
45369;BME280;51342;55.250;37.668;2024-03-02T04:11:41;100910.59;;;-3.27;76.32
45369;BME280;51342;55.250;37.668;2024-03-02T04:14:12;100907.88;;;-3.29;76.47
45369;BME280;51342;55.250;37.668;2024-03-02T04:16:44;100916.94;;;-3.24;76.38
45369;BME280;51342;55.250;37.668;2024-03-02T04:19:15;100911.22;;;-3.23;76.17
45369;BME280;51342;55.250;37.668;2024-03-02T04:21:47;100911.78;;;-3.18;75.99
45369;BME280;51342;55.250;37.668;2024-03-02T04:24:18;100911.88;;;-3.24;75.69
45369;BME280;51342;55.250;37.668;2024-03-02T04:26:50;100904.53;;;-3.35;75.52
45369;BME280;51342;55.250;37.668;2024-03-02T04:29:21;100910.63;;;-3.40;75.61
45369;BME280;51342;55.250;37.668;2024-03-02T04:31:52;100911.44;;;-3.47;75.85
45369;BME280;51342;55.250;37.668;2024-03-02T04:34:24;100916.19;;;-3.42;75.77
45369;BME280;51342;55.250;37.668;2024-03-02T04:36:55;100909.50;;;-3.42;75.75
45369;BME280;51342;55.250;37.668;2024-03-02T04:39:27;100911.03;;;-3.37;75.56
45369;BME280;51342;55.250;37.668;2024-03-02T04:41:59;100906.38;;;-3.34;75.35
45369;BME280;51342;55.250;37.668;2024-03-02T04:44:31;100909.69;;;-3.28;75.11
45369;BME280;51342;55.250;37.668;2024-03-02T04:47:03;100910.06;;;-3.25;74.95
45369;BME280;51342;55.250;37.668;2024-03-02T04:49:34;100911.50;;;-3.27;74.84
45369;BME280;51342;55.250;37.668;2024-03-02T04:52:05;100907.78;;;-3.36;74.85
45369;BME280;51342;55.250;37.668;2024-03-02T04:54:37;100906.16;;;-3.35;74.98
45369;BME280;51342;55.250;37.668;2024-03-02T04:57:28;100912.00;;;-3.29;74.97
45369;BME280;51342;55.250;37.668;2024-03-02T05:00:00;100906.63;;;-3.25;74.74
45369;BME280;51342;55.250;37.668;2024-03-02T05:02:32;100906.16;;;-3.23;74.76
45369;BME280;51342;55.250;37.668;2024-03-02T05:05:04;100901.09;;;-3.23;74.84
45369;BME280;51342;55.250;37.668;2024-03-02T05:07:35;100897.91;;;-3.14;74.84
45369;BME280;51342;55.250;37.668;2024-03-02T05:10:07;100907.09;;;-3.02;74.77
45369;BME280;51342;55.250;37.668;2024-03-02T05:12:38;100906.19;;;-3.03;74.51
45369;BME280;51342;55.250;37.668;2024-03-02T05:15:16;100903.25;;;-3.06;74.58
45369;BME280;51342;55.250;37.668;2024-03-02T05:17:47;100907.41;;;-3.06;74.67
45369;BME280;51342;55.250;37.668;2024-03-02T05:20:19;100907.19;;;-3.08;74.88
45369;BME280;51342;55.250;37.668;2024-03-02T05:22:50;100911.66;;;-3.00;74.97
45369;BME280;51342;55.250;37.668;2024-03-02T05:25:21;100911.19;;;-2.90;75.12
45369;BME280;51342;55.250;37.668;2024-03-02T05:27:53;100913.03;;;-2.89;74.87
45369;BME280;51342;55.250;37.668;2024-03-02T05:30:25;100917.38;;;-2.88;75.10
45369;BME280;51342;55.250;37.668;2024-03-02T05:32:57;100915.94;;;-2.86;75.26
45369;BME280;51342;55.250;37.668;2024-03-02T05:35:29;100906.41;;;-2.81;75.50
45369;BME280;51342;55.250;37.668;2024-03-02T05:38:00;100914.78;;;-2.75;75.62
45369;BME280;51342;55.250;37.668;2024-03-02T05:40:32;100908.75;;;-2.63;75.71
45369;BME280;51342;55.250;37.668;2024-03-02T05:43:03;100911.22;;;-2.50;75.80
45369;BME280;51342;55.250;37.668;2024-03-02T05:45:35;100904.84;;;-2.34;75.92
45369;BME280;51342;55.250;37.668;2024-03-02T05:48:07;100909.13;;;-2.20;75.88
45369;BME280;51342;55.250;37.668;2024-03-02T05:50:38;100912.88;;;-2.04;75.86
45369;BME280;51342;55.250;37.668;2024-03-02T05:53:10;100901.16;;;-1.96;75.80
45369;BME280;51342;55.250;37.668;2024-03-02T05:55:41;100904.72;;;-1.81;76.07
45369;BME280;51342;55.250;37.668;2024-03-02T05:58:13;100904.94;;;-1.66;76.12
45369;BME280;51342;55.250;37.668;2024-03-02T06:01:23;100913.75;;;-1.49;75.98
45369;BME280;51342;55.250;37.668;2024-03-02T06:03:59;100905.81;;;-1.38;75.94
45369;BME280;51342;55.250;37.668;2024-03-02T06:06:31;100910.22;;;-1.30;76.00
45369;BME280;51342;55.250;37.668;2024-03-02T06:09:05;100912.44;;;-1.19;76.10
45369;BME280;51342;55.250;37.668;2024-03-02T06:11:40;100913.72;;;-1.08;76.19
45369;BME280;51342;55.250;37.668;2024-03-02T06:14:11;100906.91;;;-0.95;76.12
45369;BME280;51342;55.250;37.668;2024-03-02T06:16:43;100904.38;;;-0.88;76.02
45369;BME280;51342;55.250;37.668;2024-03-02T06:19:14;100912.94;;;-0.73;75.96
45369;BME280;51342;55.250;37.668;2024-03-02T06:21:46;100908.22;;;-0.63;75.84
45369;BME280;51342;55.250;37.668;2024-03-02T06:24:17;100904.97;;;-0.55;75.91
45369;BME280;51342;55.250;37.668;2024-03-02T06:26:50;100908.97;;;-0.49;75.72
45369;BME280;51342;55.250;37.668;2024-03-02T06:29:22;100909.53;;;-0.45;75.65
45369;BME280;51342;55.250;37.668;2024-03-02T06:31:53;100912.97;;;-0.37;75.71
45369;BME280;51342;55.250;37.668;2024-03-02T06:34:25;100907.88;;;-0.30;75.28
45369;BME280;51342;55.250;37.668;2024-03-02T06:36:57;100904.63;;;-0.22;75.23
45369;BME280;51342;55.250;37.668;2024-03-02T06:39:28;100908.06;;;-0.14;75.16
45369;BME280;51342;55.250;37.668;2024-03-02T06:42:00;100915.34;;;-0.03;74.84
45369;BME280;51342;55.250;37.668;2024-03-02T06:44:31;100906.78;;;0.04;74.73
45369;BME280;51342;55.250;37.668;2024-03-02T06:47:03;100913.88;;;0.13;74.38
45369;BME280;51342;55.250;37.668;2024-03-02T06:49:35;100910.75;;;0.16;74.21
45369;BME280;51342;55.250;37.668;2024-03-02T06:52:06;100905.50;;;0.14;74.16
45369;BME280;51342;55.250;37.668;2024-03-02T06:54:38;100919.47;;;0.25;73.89
45369;BME280;51342;55.250;37.668;2024-03-02T06:57:09;100916.38;;;0.35;73.97
45369;BME280;51342;55.250;37.668;2024-03-02T06:59:42;100912.50;;;0.52;73.63
45369;BME280;51342;55.250;37.668;2024-03-02T07:02:13;100912.06;;;0.71;73.49
45369;BME280;51342;55.250;37.668;2024-03-02T07:04:45;100918.53;;;0.90;73.05
45369;BME280;51342;55.250;37.668;2024-03-02T07:07:16;100910.44;;;1.09;72.58
45369;BME280;51342;55.250;37.668;2024-03-02T07:09:48;100906.69;;;1.28;71.95
45369;BME280;51342;55.250;37.668;2024-03-02T07:12:20;100911.13;;;1.45;71.72
45369;BME280;51342;55.250;37.668;2024-03-02T07:14:51;100907.31;;;1.64;71.27
45369;BME280;51342;55.250;37.668;2024-03-02T07:17:35;100898.69;;;1.78;70.43
45369;BME280;51342;55.250;37.668;2024-03-02T07:20:08;100894.19;;;1.91;70.10
45369;BME280;51342;55.250;37.668;2024-03-02T07:22:40;100894.59;;;2.03;69.40
45369;BME280;51342;55.250;37.668;2024-03-02T07:25:12;100898.34;;;2.13;69.25
45369;BME280;51342;55.250;37.668;2024-03-02T07:27:44;100888.56;;;2.25;68.56
45369;BME280;51342;55.250;37.668;2024-03-02T07:30:16;100889.72;;;2.36;68.38
45369;BME280;51342;55.250;37.668;2024-03-02T07:32:51;100888.16;;;2.45;67.67
45369;BME280;51342;55.250;37.668;2024-03-02T07:35:23;100894.59;;;2.57;67.57
45369;BME280;51342;55.250;37.668;2024-03-02T07:37:57;100890.44;;;2.66;66.87
45369;BME280;51342;55.250;37.668;2024-03-02T07:40:29;100884.94;;;2.71;66.64
45369;BME280;51342;55.250;37.668;2024-03-02T07:43:01;100893.00;;;2.82;66.03
45369;BME280;51342;55.250;37.668;2024-03-02T07:45:32;100894.56;;;2.89;65.71
45369;BME280;51342;55.250;37.668;2024-03-02T07:48:04;100894.22;;;3.02;65.31
45369;BME280;51342;55.250;37.668;2024-03-02T07:50:35;100898.00;;;3.05;65.42
45369;BME280;51342;55.250;37.668;2024-03-02T07:53:08;100889.16;;;3.10;64.64
45369;BME280;51342;55.250;37.668;2024-03-02T07:55:40;100897.47;;;3.16;64.26
45369;BME280;51342;55.250;37.668;2024-03-02T07:58:12;100883.66;;;3.23;63.90
45369;BME280;51342;55.250;37.668;2024-03-02T08:00:44;100888.84;;;3.32;63.70
45369;BME280;51342;55.250;37.668;2024-03-02T08:03:16;100881.97;;;3.39;63.03
45369;BME280;51342;55.250;37.668;2024-03-02T08:05:47;100883.53;;;3.46;62.76
45369;BME280;51342;55.250;37.668;2024-03-02T08:08:19;100884.75;;;3.50;62.70
45369;BME280;51342;55.250;37.668;2024-03-02T08:10:50;100878.31;;;3.53;62.30
45369;BME280;51342;55.250;37.668;2024-03-02T08:13:22;100873.19;;;3.53;62.06
45369;BME280;51342;55.250;37.668;2024-03-02T08:15:54;100876.06;;;3.56;62.13
45369;BME280;51342;55.250;37.668;2024-03-02T08:18:28;100878.31;;;3.53;62.05
45369;BME280;51342;55.250;37.668;2024-03-02T08:21:00;100877.41;;;3.53;62.42
45369;BME280;51342;55.250;37.668;2024-03-02T08:23:33;100874.38;;;3.57;62.02
45369;BME280;51342;55.250;37.668;2024-03-02T08:26:05;100873.41;;;3.63;61.63
45369;BME280;51342;55.250;37.668;2024-03-02T08:28:37;100883.63;;;3.63;61.59
45369;BME280;51342;55.250;37.668;2024-03-02T08:31:10;100874.59;;;3.67;61.31
45369;BME280;51342;55.250;37.668;2024-03-02T08:33:41;100878.69;;;3.73;61.14
45369;BME280;51342;55.250;37.668;2024-03-02T08:36:13;100881.25;;;3.73;61.28
45369;BME280;51342;55.250;37.668;2024-03-02T08:38:51;100871.63;;;3.80;60.89
45369;BME280;51342;55.250;37.668;2024-03-02T08:41:22;100880.28;;;3.89;60.33
45369;BME280;51342;55.250;37.668;2024-03-02T08:43:57;100885.44;;;3.97;59.96
45369;BME280;51342;55.250;37.668;2024-03-02T08:46:30;100875.63;;;4.02;59.96
45369;BME280;51342;55.250;37.668;2024-03-02T08:49:01;100874.31;;;4.06;59.92
45369;BME280;51342;55.250;37.668;2024-03-02T08:51:33;100867.22;;;4.03;59.44
45369;BME280;51342;55.250;37.668;2024-03-02T08:54:05;100868.13;;;4.04;59.22
45369;BME280;51342;55.250;37.668;2024-03-02T08:56:40;100862.97;;;3.95;59.03
45369;BME280;51342;55.250;37.668;2024-03-02T08:59:14;100866.56;;;3.88;59.38
45369;BME280;51342;55.250;37.668;2024-03-02T09:01:46;100868.53;;;3.91;58.99
45369;BME280;51342;55.250;37.668;2024-03-02T09:04:18;100870.50;;;3.93;59.00
45369;BME280;51342;55.250;37.668;2024-03-02T09:06:51;100871.25;;;3.92;58.84
45369;BME280;51342;55.250;37.668;2024-03-02T09:09:23;100861.31;;;3.95;58.90
45369;BME280;51342;55.250;37.668;2024-03-02T09:11:54;100861.59;;;3.90;58.66
45369;BME280;51342;55.250;37.668;2024-03-02T09:14:28;100857.97;;;3.88;58.89
45369;BME280;51342;55.250;37.668;2024-03-02T09:17:02;100866.00;;;3.99;58.92
45369;BME280;51342;55.250;37.668;2024-03-02T09:19:33;100864.81;;;4.05;58.68
45369;BME280;51342;55.250;37.668;2024-03-02T09:22:08;100858.47;;;4.01;58.69
45369;BME280;51342;55.250;37.668;2024-03-02T09:24:41;100859.53;;;4.03;58.62
45369;BME280;51342;55.250;37.668;2024-03-02T09:27:13;100858.19;;;4.07;58.53
45369;BME280;51342;55.250;37.668;2024-03-02T09:29:46;100853.22;;;4.08;58.57
45369;BME280;51342;55.250;37.668;2024-03-02T09:32:18;100850.97;;;4.11;58.88
45369;BME280;51342;55.250;37.668;2024-03-02T09:34:55;100853.25;;;4.17;58.94
45369;BME280;51342;55.250;37.668;2024-03-02T09:37:30;100839.38;;;4.15;58.62
45369;BME280;51342;55.250;37.668;2024-03-02T09:40:02;100857.03;;;4.20;58.37
45369;BME280;51342;55.250;37.668;2024-03-02T09:42:34;100851.91;;;4.20;58.87
45369;BME280;51342;55.250;37.668;2024-03-02T09:45:15;100848.16;;;4.25;58.78
45369;BME280;51342;55.250;37.668;2024-03-02T09:47:58;100850.09;;;4.28;58.67
45369;BME280;51342;55.250;37.668;2024-03-02T09:50:31;100848.88;;;4.24;58.36
45369;BME280;51342;55.250;37.668;2024-03-02T09:53:07;100844.50;;;4.23;58.43
45369;BME280;51342;55.250;37.668;2024-03-02T09:55:47;100847.22;;;4.25;58.40
45369;BME280;51342;55.250;37.668;2024-03-02T09:58:22;100853.56;;;4.29;58.46
45369;BME280;51342;55.250;37.668;2024-03-02T10:00:55;100847.41;;;4.27;58.45
45369;BME280;51342;55.250;37.668;2024-03-02T10:03:29;100844.06;;;4.28;58.41
45369;BME280;51342;55.250;37.668;2024-03-02T10:06:26;100838.63;;;4.24;58.35
45369;BME280;51342;55.250;37.668;2024-03-02T10:08:58;100843.19;;;4.27;58.48
45369;BME280;51342;55.250;37.668;2024-03-02T10:11:35;100833.22;;;4.21;58.29
45369;BME280;51342;55.250;37.668;2024-03-02T10:14:20;100836.06;;;4.16;57.99
45369;BME280;51342;55.250;37.668;2024-03-02T10:17:05;100836.06;;;4.16;58.34
45369;BME280;51342;55.250;37.668;2024-03-02T10:19:44;100829.91;;;4.22;58.41
45369;BME280;51342;55.250;37.668;2024-03-02T10:22:18;100825.81;;;4.16;58.31
45369;BME280;51342;55.250;37.668;2024-03-02T10:24:50;100835.47;;;4.18;58.19
45369;BME280;51342;55.250;37.668;2024-03-02T10:27:26;100832.91;;;4.18;58.57
45369;BME280;51342;55.250;37.668;2024-03-02T10:29:59;100819.66;;;4.22;58.53
45369;BME280;51342;55.250;37.668;2024-03-02T10:32:36;100828.81;;;4.12;58.53
45369;BME280;51342;55.250;37.668;2024-03-02T10:35:11;100832.03;;;4.27;58.68
45369;BME280;51342;55.250;37.668;2024-03-02T10:37:44;100846.50;;;4.35;58.32
45369;BME280;51342;55.250;37.668;2024-03-02T10:40:16;100838.81;;;4.35;58.20
45369;BME280;51342;55.250;37.668;2024-03-02T10:42:49;100835.06;;;4.31;58.29
45369;BME280;51342;55.250;37.668;2024-03-02T10:45:25;100836.84;;;4.32;58.58
45369;BME280;51342;55.250;37.668;2024-03-02T10:48:02;100844.25;;;4.38;58.18
45369;BME280;51342;55.250;37.668;2024-03-02T10:50:33;100837.28;;;4.37;57.92
45369;BME280;51342;55.250;37.668;2024-03-02T10:53:05;100842.41;;;4.37;58.12
45369;BME280;51342;55.250;37.668;2024-03-02T10:55:37;100844.97;;;4.37;58.15
45369;BME280;51342;55.250;37.668;2024-03-02T10:58:12;100844.53;;;4.41;58.25
45369;BME280;51342;55.250;37.668;2024-03-02T11:00:51;100847.72;;;4.47;58.41
45369;BME280;51342;55.250;37.668;2024-03-02T11:03:25;100846.22;;;4.49;57.90
45369;BME280;51342;55.250;37.668;2024-03-02T11:05:59;100833.41;;;4.49;57.37
45369;BME280;51342;55.250;37.668;2024-03-02T11:08:34;100837.16;;;4.52;57.48
45369;BME280;51342;55.250;37.668;2024-03-02T11:11:15;100832.03;;;4.52;57.10
45369;BME280;51342;55.250;37.668;2024-03-02T11:13:49;100826.16;;;4.53;57.06
45369;BME280;51342;55.250;37.668;2024-03-02T11:16:37;100834.47;;;4.51;56.90
45369;BME280;51342;55.250;37.668;2024-03-02T11:19:18;100835.06;;;4.48;56.85
45369;BME280;51342;55.250;37.668;2024-03-02T11:21:51;100830.09;;;4.50;56.69
45369;BME280;51342;55.250;37.668;2024-03-02T11:33:11;100832.34;;;4.56;57.15
45369;BME280;51342;55.250;37.668;2024-03-02T11:35:50;100830.84;;;4.58;57.03
45369;BME280;51342;55.250;37.668;2024-03-02T11:38:27;100828.88;;;4.55;56.90
45369;BME280;51342;55.250;37.668;2024-03-02T11:41:11;100831.44;;;4.55;56.96
45369;BME280;51342;55.250;37.668;2024-03-02T11:59:06;100814.97;;;5.50;53.25
45369;BME280;51342;55.250;37.668;2024-03-02T12:01:38;100813.28;;;5.23;54.29
45369;BME280;51342;55.250;37.668;2024-03-02T12:04:10;100810.44;;;5.11;54.64
45369;BME280;51342;55.250;37.668;2024-03-02T12:06:41;100815.56;;;5.02;55.23
45369;BME280;51342;55.250;37.668;2024-03-02T12:09:14;100814.22;;;4.97;55.71
45369;BME280;51342;55.250;37.668;2024-03-02T12:11:46;100816.34;;;4.93;55.55
45369;BME280;51342;55.250;37.668;2024-03-02T12:14:17;100827.81;;;4.88;55.38
45369;BME280;51342;55.250;37.668;2024-03-02T12:16:48;100821.34;;;4.83;55.76
45369;BME280;51342;55.250;37.668;2024-03-02T12:19:20;100811.09;;;4.74;55.89
45369;BME280;51342;55.250;37.668;2024-03-02T12:21:52;100815.94;;;4.71;55.46
45369;BME280;51342;55.250;37.668;2024-03-02T12:24:27;100818.03;;;4.66;55.97
45369;BME280;51342;55.250;37.668;2024-03-02T12:26:59;100823.16;;;4.66;56.17
45369;BME280;51342;55.250;37.668;2024-03-02T12:29:30;100817.84;;;4.65;56.17
45369;BME280;51342;55.250;37.668;2024-03-02T12:32:02;100813.66;;;4.65;56.04
45369;BME280;51342;55.250;37.668;2024-03-02T12:34:34;100811.84;;;4.64;56.30
45369;BME280;51342;55.250;37.668;2024-03-02T12:37:05;100813.34;;;4.53;55.85
45369;BME280;51342;55.250;37.668;2024-03-02T12:39:36;100812.91;;;4.49;56.22
45369;BME280;51342;55.250;37.668;2024-03-02T12:42:08;100822.09;;;4.38;56.02
45369;BME280;51342;55.250;37.668;2024-03-02T12:44:39;100816.66;;;4.27;56.44
45369;BME280;51342;55.250;37.668;2024-03-02T12:47:11;100822.66;;;4.18;56.58
45369;BME280;51342;55.250;37.668;2024-03-02T12:49:44;100827.91;;;4.11;56.75
45369;BME280;51342;55.250;37.668;2024-03-02T12:52:17;100838.59;;;3.98;56.74
45369;BME280;51342;55.250;37.668;2024-03-02T12:54:49;100841.09;;;3.81;56.87
45369;BME280;51342;55.250;37.668;2024-03-02T12:57:21;100828.81;;;3.61;57.10
45369;BME280;51342;55.250;37.668;2024-03-02T12:59:52;100848.09;;;3.58;57.74
45369;BME280;51342;55.250;37.668;2024-03-02T13:02:27;100839.13;;;3.45;57.72
45369;BME280;51342;55.250;37.668;2024-03-02T13:04:59;100844.69;;;3.41;58.38
45369;BME280;51342;55.250;37.668;2024-03-02T13:07:30;100847.34;;;3.34;58.34
45369;BME280;51342;55.250;37.668;2024-03-02T13:10:02;100843.44;;;3.29;58.34
45369;BME280;51342;55.250;37.668;2024-03-02T13:12:35;100848.06;;;3.25;58.49
45369;BME280;51342;55.250;37.668;2024-03-02T13:15:08;100845.75;;;3.19;58.60
45369;BME280;51342;55.250;37.668;2024-03-02T13:17:39;100847.69;;;3.13;58.94
45369;BME280;51342;55.250;37.668;2024-03-02T13:20:11;100847.75;;;3.06;59.09
45369;BME280;51342;55.250;37.668;2024-03-02T13:22:42;100847.59;;;3.04;59.24
45369;BME280;51342;55.250;37.668;2024-03-02T13:25:14;100839.94;;;3.04;59.41
45369;BME280;51342;55.250;37.668;2024-03-02T13:27:45;100835.72;;;3.05;59.64
45369;BME280;51342;55.250;37.668;2024-03-02T13:30:17;100834.53;;;3.01;59.30
45369;BME280;51342;55.250;37.668;2024-03-02T13:32:48;100843.25;;;3.03;58.99
45369;BME280;51342;55.250;37.668;2024-03-02T13:35:20;100840.69;;;3.03;59.24
45369;BME280;51342;55.250;37.668;2024-03-02T13:37:51;100845.81;;;3.03;59.35
45369;BME280;51342;55.250;37.668;2024-03-02T13:40:23;100844.75;;;3.01;58.89